Time;durP1;ratioP1;P1;durP2;ratioP2;P2;SDS_P1;SDS_P2;PMS_P1;PMS_P2;Temp;Humidity;BMP_temperature;BMP_pressure;BME280_temperature;BME280_humidity;BME280_pressure;Samples;Min_cycle;Max_cycle;Signal;HPM_P1;HPM_P2
2023/06/19 00:00:50;;;;;;;;;3.00;3.00;;;;;;;;4980745;28;28539;-68
2023/06/19 00:03:15;;;;;;;;;2.50;2.50;;;;;;;;4990422;28;28357;-68
2023/06/19 00:05:40;;;;;;;;;4.00;4.00;;;;;;;;4992161;28;28600;-69
2023/06/19 00:08:06;;;;;;;;;5.25;4.25;;;;;;;;4988617;28;29890;-67
2023/06/19 00:10:31;;;;;;;;;5.75;3.00;;;;;;;;4984396;28;28482;-68
2023/06/19 00:12:56;;;;;;;;;3.00;3.00;;;;;;;;4986809;28;45322;-68
2023/06/19 00:15:22;;;;;;;;;4.50;4.00;;;;;;;;4992863;28;28554;-67
2023/06/19 00:17:47;;;;;;;;;4.00;4.00;;;;;;;;4992870;28;29404;-66
2023/06/19 00:20:13;;;;;;;;;5.00;5.00;;;;;;;;4975787;28;29560;-67
2023/06/19 00:22:39;;;;;;;;;3.00;3.00;;;;;;;;4989202;28;28580;-66
2023/06/19 00:25:04;;;;;;;;;4.25;3.00;;;;;;;;4990934;28;28530;-66
2023/06/19 00:27:29;;;;;;;;;3.75;3.75;;;;;;;;4987304;28;28590;-67
2023/06/19 00:30:01;;;;;;;;;4.75;4.75;;;;;;;;4986401;28;28860;-66
2023/06/19 00:32:26;;;;;;;;;5.00;5.00;;;;;;;;4988533;28;45290;-67
2023/06/19 00:34:51;;;;;;;;;6.50;4.00;;;;;;;;4989971;28;28659;-67
2023/06/19 00:37:16;;;;;;;;;5.25;5.25;;;;;;;;4992408;28;28452;-67
2023/06/19 00:39:42;;;;;;;;;3.50;3.50;;;;;;;;4988751;28;44685;-67
2023/06/19 00:42:07;;;;;;;;;4.25;4.00;;;;;;;;4973145;28;45397;-66
2023/06/19 00:44:32;;;;;;;;;5.00;5.00;;;;;;;;4972103;28;45310;-67
2023/06/19 00:46:58;;;;;;;;;7.50;7.50;;;;;;;;4977423;28;45519;-67
2023/06/19 00:49:24;;;;;;;;;7.75;7.75;;;;;;;;4977047;28;45453;-67
2023/06/19 00:51:51;;;;;;;;;6.00;6.00;;;;;;;;4981132;28;45422;-67
2023/06/19 00:54:17;;;;;;;;;7.50;6.25;;;;;;;;4989925;28;28424;-67
2023/06/19 00:56:43;;;;;;;;;5.50;5.00;;;;;;;;4984995;28;45404;-66
2023/06/19 00:59:14;;;;;;;;;4.50;4.50;;;;;;;;4987419;28;28581;-67
2023/06/19 01:01:40;;;;;;;;;5.50;5.25;;;;;;;;4989384;28;28428;-66
2023/06/19 01:04:05;;;;;;;;;5.25;4.50;;;;;;;;4991842;28;28479;-67
2023/06/19 01:06:38;;;;;;;;;5.00;4.00;;;;;;;;4981970;28;45384;-67
2023/06/19 01:09:06;;;;;;;;;3.50;3.50;;;;;;;;4975340;28;45740;-68
2023/06/19 01:11:33;;;;;;;;;5.00;5.00;;;;;;;;4974325;28;45462;-68
2023/06/19 01:14:00;;;;;;;;;6.75;5.75;;;;;;;;4961598;28;45353;-67
2023/06/19 01:16:26;;;;;;;;;5.75;5.75;;;;;;;;4959119;28;45325;-68
2023/06/19 01:18:51;;;;;;;;;6.50;4.25;;;;;;;;4957384;28;45305;-67
2023/06/19 01:21:17;;;;;;;;;4.75;4.75;;;;;;;;4957791;28;45341;-68
2023/06/19 01:23:43;;;;;;;;;7.00;5.50;;;;;;;;4961979;28;45270;-67
2023/06/19 01:26:08;;;;;;;;;4.25;4.25;;;;;;;;4972956;28;28587;-67
2023/06/19 01:28:38;;;;;;;;;6.25;5.00;;;;;;;;4973026;28;28436;-67
2023/06/19 01:31:06;;;;;;;;;6.75;6.75;;;;;;;;4973178;28;28383;-67
2023/06/19 01:33:32;;;;;;;;;5.25;5.25;;;;;;;;4972896;28;28704;-67
2023/06/19 01:35:57;;;;;;;;;6.00;6.00;;;;;;;;4971806;28;29498;-67
2023/06/19 01:38:26;;;;;;;;;6.00;6.00;;;;;;;;4986271;28;28343;-68
2023/06/19 01:40:52;;;;;;;;;5.00;5.00;;;;;;;;4989959;28;28681;-67
2023/06/19 01:43:18;;;;;;;;;6.50;5.75;;;;;;;;4991796;28;28422;-68
2023/06/19 01:45:43;;;;;;;;;6.75;6.75;;;;;;;;4992545;28;28419;-68
2023/06/19 01:48:08;;;;;;;;;5.75;4.00;;;;;;;;4992363;28;28332;-68
2023/06/19 01:50:34;;;;;;;;;7.75;5.75;;;;;;;;4992342;28;28356;-67
2023/06/19 01:52:59;;;;;;;;;5.75;4.00;;;;;;;;4992654;28;28436;-66
2023/06/19 01:55:24;;;;;;;;;9.25;7.00;;;;;;;;4990015;28;30795;-67
2023/06/19 01:57:50;;;;;;;;;6.75;5.00;;;;;;;;4992504;28;28445;-67
2023/06/19 02:00:15;;;;;;;;;6.75;6.75;;;;;;;;4992574;28;28448;-67
2023/06/19 02:02:40;;;;;;;;;5.25;5.25;;;;;;;;4992242;28;27696;-68
2023/06/19 02:05:06;;;;;;;;;9.25;7.25;;;;;;;;4992095;28;28554;-67
2023/06/19 02:07:31;;;;;;;;;9.75;9.75;;;;;;;;4992355;28;28404;-67
2023/06/19 02:09:57;;;;;;;;;6.50;6.50;;;;;;;;4991987;28;28415;-67
2023/06/19 02:12:22;;;;;;;;;9.00;7.00;;;;;;;;4992131;28;28438;-67
2023/06/19 02:14:47;;;;;;;;;6.00;6.00;;;;;;;;4992070;28;28440;-68
2023/06/19 02:17:12;;;;;;;;;8.00;6.75;;;;;;;;4990477;28;28491;-67
2023/06/19 02:19:37;;;;;;;;;7.25;6.75;;;;;;;;4992061;28;28380;-66
2023/06/19 02:22:03;;;;;;;;;9.25;8.50;;;;;;;;4992022;28;28382;-67
2023/06/19 02:24:28;;;;;;;;;9.00;7.25;;;;;;;;4991356;28;29207;-67
2023/06/19 02:26:53;;;;;;;;;11.50;9.00;;;;;;;;4990587;28;28713;-67
2023/06/19 02:29:18;;;;;;;;;7.00;7.00;;;;;;;;4980841;28;45628;-67
2023/06/19 02:31:44;;;;;;;;;8.00;6.75;;;;;;;;4976246;28;45559;-67
2023/06/19 02:34:09;;;;;;;;;7.25;6.25;;;;;;;;4991644;28;29266;-67
2023/06/19 02:36:35;;;;;;;;;7.25;7.00;;;;;;;;4991747;28;28457;-66
2023/06/19 02:39:00;;;;;;;;;6.25;6.25;;;;;;;;4991315;28;28512;-67
2023/06/19 02:41:25;;;;;;;;;10.75;8.50;;;;;;;;4991710;28;28463;-67
2023/06/19 02:43:51;;;;;;;;;8.75;8.75;;;;;;;;4991803;28;28522;-67
2023/06/19 02:46:16;;;;;;;;;5.75;4.50;;;;;;;;4991887;28;28677;-67
2023/06/19 02:48:41;;;;;;;;;7.25;7.25;;;;;;;;4991845;28;28711;-67
2023/06/19 02:51:06;;;;;;;;;9.25;9.25;;;;;;;;4991625;28;28499;-67
2023/06/19 02:53:31;;;;;;;;;5.50;5.50;;;;;;;;4991485;28;28463;-67
2023/06/19 02:55:57;;;;;;;;;9.75;8.00;;;;;;;;4991955;28;28641;-67
2023/06/19 02:58:22;;;;;;;;;11.50;9.50;;;;;;;;4991659;28;28542;-67
2023/06/19 03:00:48;;;;;;;;;9.50;9.50;;;;;;;;4991570;28;28427;-66
2023/06/19 03:03:13;;;;;;;;;8.50;8.50;;;;;;;;4991320;28;28431;-67
2023/06/19 03:05:38;;;;;;;;;9.25;9.25;;;;;;;;4991599;28;28436;-66
2023/06/19 03:08:04;;;;;;;;;9.25;9.00;;;;;;;;4991281;28;28407;-67
2023/06/19 03:10:29;;;;;;;;;8.75;8.75;;;;;;;;4991557;28;28437;-67
2023/06/19 03:12:54;;;;;;;;;7.25;6.75;;;;;;;;4991452;28;28391;-66
2023/06/19 03:15:19;;;;;;;;;9.50;7.25;;;;;;;;4990979;28;28487;-67
2023/06/19 03:17:44;;;;;;;;;7.00;5.75;;;;;;;;4991435;28;28409;-67
2023/06/19 03:20:11;;;;;;;;;5.75;5.75;;;;;;;;4991221;28;28428;-67
2023/06/19 03:22:38;;;;;;;;;7.00;6.00;;;;;;;;4989619;28;28479;-68
2023/06/19 03:25:03;;;;;;;;;7.00;7.00;;;;;;;;4990981;28;28680;-68
2023/06/19 03:27:30;;;;;;;;;8.50;8.50;;;;;;;;4991237;28;28512;-68
2023/06/19 03:29:55;;;;;;;;;7.75;7.25;;;;;;;;4991017;28;28505;-68
2023/06/19 03:32:20;;;;;;;;;7.75;7.00;;;;;;;;4991344;28;28567;-67
2023/06/19 03:34:46;;;;;;;;;9.00;7.50;;;;;;;;4991053;28;28383;-67
2023/06/19 03:37:12;;;;;;;;;12.25;9.25;;;;;;;;4990914;28;28444;-67
2023/06/19 03:39:37;;;;;;;;;8.00;6.25;;;;;;;;4994294;28;28573;-68
2023/06/19 03:42:02;;;;;;;;;7.00;5.00;;;;;;;;4994034;28;28485;-68
2023/06/19 03:44:28;;;;;;;;;11.00;10.25;;;;;;;;4993611;28;28586;-68
2023/06/19 03:46:53;;;;;;;;;6.75;6.75;;;;;;;;4993887;28;28423;-67
2023/06/19 03:49:18;;;;;;;;;10.00;9.75;;;;;;;;4994790;28;28436;-68
2023/06/19 03:51:43;;;;;;;;;7.75;7.50;;;;;;;;4994354;28;29251;-68
2023/06/19 03:54:08;;;;;;;;;10.00;8.00;;;;;;;;4994182;28;28053;-68
2023/06/19 03:56:34;;;;;;;;;10.25;9.25;;;;;;;;4994592;28;28379;-68
2023/06/19 03:58:59;;;;;;;;;10.50;9.50;;;;;;;;4994686;28;27871;-68
2023/06/19 04:01:24;;;;;;;;;9.75;9.75;;;;;;;;4994052;28;28461;-68
2023/06/19 04:03:49;;;;;;;;;11.00;9.50;;;;;;;;4993907;28;28361;-68
2023/06/19 04:06:14;;;;;;;;;8.50;8.50;;;;;;;;4994191;28;28344;-68
2023/06/19 04:08:40;;;;;;;;;6.50;5.50;;;;;;;;4994310;28;28325;-68
2023/06/19 04:11:05;;;;;;;;;8.75;7.25;;;;;;;;4993688;28;29223;-68
2023/06/19 04:13:30;;;;;;;;;9.00;9.00;;;;;;;;4994377;28;28368;-68
2023/06/19 04:15:55;;;;;;;;;7.25;7.25;;;;;;;;4992773;28;28502;-68
2023/06/19 04:18:21;;;;;;;;;11.25;9.00;;;;;;;;4994202;28;28352;-68
2023/06/19 04:20:46;;;;;;;;;8.75;7.50;;;;;;;;4993877;28;28420;-68
2023/06/19 04:23:12;;;;;;;;;9.25;9.00;;;;;;;;4993843;28;28499;-68
2023/06/19 04:25:37;;;;;;;;;14.50;14.50;;;;;;;;4993918;28;28407;-68
2023/06/19 04:28:03;;;;;;;;;11.00;11.00;;;;;;;;4993896;28;28483;-68
2023/06/19 04:30:29;;;;;;;;;11.00;9.75;;;;;;;;4993261;28;28506;-68
2023/06/19 04:32:54;;;;;;;;;5.00;5.00;;;;;;;;4993380;28;28478;-67
2023/06/19 04:35:19;;;;;;;;;10.25;8.50;;;;;;;;4993148;28;28509;-68
2023/06/19 04:37:44;;;;;;;;;12.00;11.25;;;;;;;;4993760;28;28439;-68
2023/06/19 04:40:10;;;;;;;;;11.75;9.25;;;;;;;;4985821;28;45375;-67
2023/06/19 04:42:38;;;;;;;;;8.75;8.75;;;;;;;;4977588;28;45466;-68
2023/06/19 04:45:07;;;;;;;;;11.75;9.75;;;;;;;;4981298;28;45407;-68
2023/06/19 04:47:32;;;;;;;;;9.00;9.00;;;;;;;;4988251;28;45281;-68
2023/06/19 04:49:57;;;;;;;;;14.25;8.50;;;;;;;;4976108;28;46614;-67
2023/06/19 04:52:23;;;;;;;;;12.25;10.50;;;;;;;;4977172;28;45341;-68
2023/06/19 04:54:48;;;;;;;;;9.50;9.50;;;;;;;;4977752;28;45466;-68
2023/06/19 04:57:13;;;;;;;;;9.75;8.50;;;;;;;;4980337;28;45574;-68
2023/06/19 04:59:38;;;;;;;;;11.75;8.75;;;;;;;;4991554;28;28554;-68
2023/06/19 05:02:04;;;;;;;;;10.00;8.25;;;;;;;;4977603;28;45411;-68
2023/06/19 05:04:32;;;;;;;;;8.75;7.50;;;;;;;;4988676;28;45438;-68
2023/06/19 05:06:57;;;;;;;;;8.75;8.75;;;;;;;;4992650;28;28495;-69
2023/06/19 05:09:22;;;;;;;;;12.75;11.50;;;;;;;;4992991;28;28573;-70
2023/06/19 05:11:48;;;;;;;;;11.75;11.75;;;;;;;;4993074;28;28465;-70
2023/06/19 05:14:14;;;;;;;;;17.25;9.75;;;;;;;;4993355;28;28424;-70
2023/06/19 05:16:39;;;;;;;;;10.00;9.00;;;;;;;;4993342;28;28332;-70
2023/06/19 05:19:05;;;;;;;;;8.50;8.25;;;;;;;;4991298;28;31793;-69
2023/06/19 05:21:30;;;;;;;;;9.25;7.50;;;;;;;;4992536;28;28380;-70
2023/06/19 05:23:55;;;;;;;;;10.00;8.25;;;;;;;;4993181;28;28375;-68
2023/06/19 05:26:21;;;;;;;;;14.25;10.75;;;;;;;;4992958;28;28557;-68
2023/06/19 05:28:47;;;;;;;;;11.25;10.75;;;;;;;;4992391;28;28407;-68
2023/06/19 05:31:12;;;;;;;;;10.25;10.00;;;;;;;;4991495;28;28426;-68
2023/06/19 05:33:37;;;;;;;;;10.25;8.75;;;;;;;;4991687;28;28481;-68
2023/06/19 05:36:03;;;;;;;;;12.25;12.25;;;;;;;;4993109;28;28380;-68
2023/06/19 05:38:30;;;;;;;;;11.25;11.25;;;;;;;;4992850;28;28423;-68
2023/06/19 05:40:55;;;;;;;;;9.75;9.75;;;;;;;;4994224;28;28425;-68
2023/06/19 05:43:21;;;;;;;;;9.50;8.50;;;;;;;;4990389;28;44728;-69
2023/06/19 05:45:47;;;;;;;;;13.25;12.25;;;;;;;;4991869;28;28459;-69
2023/06/19 05:48:12;;;;;;;;;13.00;10.50;;;;;;;;4990540;28;30351;-69
2023/06/19 05:50:37;;;;;;;;;10.00;8.75;;;;;;;;4991853;28;28501;-69
2023/06/19 05:53:02;;;;;;;;;13.50;13.25;;;;;;;;4992680;28;28513;-69
2023/06/19 05:55:27;;;;;;;;;14.00;12.75;;;;;;;;4992718;28;29062;-69
2023/06/19 05:57:53;;;;;;;;;10.50;10.50;;;;;;;;4992530;28;29240;-69
2023/06/19 06:00:19;;;;;;;;;9.75;9.25;;;;;;;;4992105;28;28513;-69
2023/06/19 06:02:44;;;;;;;;;9.25;9.25;;;;;;;;4991662;28;28450;-69
2023/06/19 06:05:09;;;;;;;;;11.00;10.00;;;;;;;;4992082;28;28457;-69
2023/06/19 06:07:35;;;;;;;;;11.75;10.25;;;;;;;;4987301;28;29345;-69
2023/06/19 06:10:00;;;;;;;;;9.25;9.00;;;;;;;;4990281;28;28516;-69
2023/06/19 06:12:25;;;;;;;;;14.00;10.75;;;;;;;;4992218;28;27772;-69
2023/06/19 06:14:51;;;;;;;;;12.75;12.75;;;;;;;;4992314;28;28400;-68
2023/06/19 06:17:16;;;;;;;;;5.00;5.00;;;;;;;;4988536;28;28543;-69
2023/06/19 06:19:41;;;;;;;;;13.75;10.00;;;;;;;;4991718;28;28468;-69
2023/06/19 06:22:07;;;;;;;;;9.50;9.50;;;;;;;;4991480;28;28423;-69
2023/06/19 06:24:32;;;;;;;;;11.75;11.25;;;;;;;;4991938;28;28369;-69
2023/06/19 06:26:58;;;;;;;;;12.00;11.00;;;;;;;;4980202;28;45364;-69
2023/06/19 06:29:24;;;;;;;;;8.25;8.25;;;;;;;;4994276;28;44693;-69
2023/06/19 06:31:49;;;;;;;;;8.75;8.75;;;;;;;;4986008;28;45329;-69
2023/06/19 06:34:14;;;;;;;;;15.25;12.75;;;;;;;;4980481;28;45401;-69
2023/06/19 06:36:39;;;;;;;;;10.50;9.25;;;;;;;;4975586;28;45512;-69
2023/06/19 06:39:05;;;;;;;;;10.50;10.25;;;;;;;;4983285;28;45269;-68
2023/06/19 06:41:31;;;;;;;;;13.75;12.00;;;;;;;;4989479;28;45391;-69
2023/06/19 06:43:56;;;;;;;;;12.50;10.25;;;;;;;;4991759;28;28633;-69
2023/06/19 06:46:21;;;;;;;;;9.75;9.75;;;;;;;;4987526;28;45344;-69
2023/06/19 06:48:47;;;;;;;;;14.00;10.75;;;;;;;;4982623;28;45306;-69
2023/06/19 06:51:12;;;;;;;;;11.50;10.25;;;;;;;;4982132;28;45373;-69
2023/06/19 06:53:37;;;;;;;;;8.50;8.50;;;;;;;;4991648;28;28464;-69
2023/06/19 06:56:03;;;;;;;;;10.25;9.25;;;;;;;;4990453;28;30043;-69
2023/06/19 06:58:28;;;;;;;;;10.75;10.75;;;;;;;;4991703;28;28571;-69
2023/06/19 07:00:53;;;;;;;;;11.00;10.00;;;;;;;;4991682;28;28492;-69
2023/06/19 07:03:19;;;;;;;;;11.50;8.75;;;;;;;;4991595;28;28503;-69
2023/06/19 07:05:44;;;;;;;;;9.25;8.75;;;;;;;;4991259;28;28343;-69
2023/06/19 07:08:09;;;;;;;;;7.75;7.75;;;;;;;;4991501;28;28400;-69
2023/06/19 07:10:34;;;;;;;;;7.50;7.50;;;;;;;;4991539;28;28376;-69
2023/06/19 07:13:00;;;;;;;;;8.00;6.75;;;;;;;;4990944;28;28590;-69
2023/06/19 07:15:25;;;;;;;;;12.50;9.50;;;;;;;;4990953;28;29184;-69
2023/06/19 07:17:50;;;;;;;;;7.25;7.25;;;;;;;;4986748;28;28440;-69
2023/06/19 07:20:16;;;;;;;;;12.75;10.75;;;;;;;;4991295;28;28418;-69
2023/06/19 07:22:41;;;;;;;;;11.75;10.75;;;;;;;;4990858;28;28406;-69
2023/06/19 07:25:07;;;;;;;;;9.50;8.25;;;;;;;;4991123;28;29428;-69
2023/06/19 07:27:32;;;;;;;;;9.75;9.75;;;;;;;;4990112;28;29345;-69
2023/06/19 07:29:57;;;;;;;;;13.25;12.00;;;;;;;;4990968;28;28409;-69
2023/06/19 07:32:23;;;;;;;;;10.75;10.75;;;;;;;;4989986;28;28544;-69
2023/06/19 07:34:48;;;;;;;;;15.50;10.00;;;;;;;;4987827;28;28804;-69
2023/06/19 07:37:20;;;;;;;;;15.25;12.50;;;;;;;;4991103;28;28329;-69
2023/06/19 07:39:46;;;;;;;;;14.75;13.50;;;;;;;;4991376;28;28384;-69
2023/06/19 07:42:11;;;;;;;;;12.75;11.50;;;;;;;;4990981;28;28462;-69
2023/06/19 07:44:36;;;;;;;;;9.75;9.75;;;;;;;;4990855;28;30374;-68
2023/06/19 07:47:01;;;;;;;;;9.25;8.25;;;;;;;;4973062;28;28767;-69
2023/06/19 07:49:27;;;;;;;;;8.25;7.00;;;;;;;;4989695;28;28427;-69
2023/06/19 07:51:52;;;;;;;;;12.00;11.25;;;;;;;;4990546;28;28558;-69
2023/06/19 07:54:17;;;;;;;;;12.25;10.00;;;;;;;;4990613;28;28429;-69
2023/06/19 07:56:43;;;;;;;;;10.75;10.75;;;;;;;;4989753;28;28435;-68
2023/06/19 07:59:08;;;;;;;;;10.75;10.75;;;;;;;;4989720;28;28419;-69
2023/06/19 08:01:33;;;;;;;;;14.00;12.75;;;;;;;;4989273;28;28772;-69
2023/06/19 08:03:58;;;;;;;;;6.25;6.25;;;;;;;;4991197;28;29216;-69
2023/06/19 08:06:23;;;;;;;;;11.00;9.25;;;;;;;;4990945;28;28388;-69
2023/06/19 08:08:48;;;;;;;;;14.75;11.25;;;;;;;;4988810;28;44728;-69
2023/06/19 08:11:14;;;;;;;;;14.75;13.75;;;;;;;;4987047;28;45412;-69
2023/06/19 08:13:39;;;;;;;;;11.00;10.00;;;;;;;;4988982;28;28434;-67
2023/06/19 08:16:05;;;;;;;;;11.50;9.25;;;;;;;;4987578;28;45282;-69
2023/06/19 08:18:30;;;;;;;;;16.00;12.75;;;;;;;;4990511;28;28419;-69
2023/06/19 08:20:55;;;;;;;;;8.25;8.25;;;;;;;;4990487;28;28567;-68
2023/06/19 08:23:20;;;;;;;;;10.75;9.00;;;;;;;;4990243;28;29258;-70
2023/06/19 08:25:45;;;;;;;;;11.75;10.50;;;;;;;;4992524;28;44690;-70
2023/06/19 08:28:11;;;;;;;;;13.00;11.50;;;;;;;;4992570;28;40386;-70
2023/06/19 08:30:36;;;;;;;;;13.50;11.75;;;;;;;;4992553;28;28464;-70
2023/06/19 08:33:01;;;;;;;;;10.00;9.00;;;;;;;;4993832;28;29245;-70
2023/06/19 08:35:26;;;;;;;;;14.00;12.50;;;;;;;;4993947;28;28510;-70
2023/06/19 08:37:51;;;;;;;;;13.25;11.25;;;;;;;;4993819;28;28376;-70
2023/06/19 08:40:17;;;;;;;;;9.25;8.00;;;;;;;;4981781;28;45523;-70
2023/06/19 08:42:43;;;;;;;;;10.25;9.00;;;;;;;;4993399;28;28518;-68
2023/06/19 08:45:08;;;;;;;;;13.50;9.50;;;;;;;;4993641;28;28452;-68
2023/06/19 08:47:34;;;;;;;;;10.50;8.25;;;;;;;;4993476;28;28450;-68
2023/06/19 08:49:59;;;;;;;;;11.75;10.50;;;;;;;;4993415;28;28511;-68
2023/06/19 08:52:24;;;;;;;;;11.25;11.00;;;;;;;;4993703;28;29126;-68
2023/06/19 08:54:49;;;;;;;;;6.00;6.00;;;;;;;;4992366;28;28888;-68
2023/06/19 08:57:15;;;;;;;;;10.00;9.00;;;;;;;;4993432;28;28392;-69
2023/06/19 08:59:47;;;;;;;;;8.25;7.25;;;;;;;;4993376;28;28305;-69
2023/06/19 09:02:12;;;;;;;;;10.75;8.25;;;;;;;;4992122;28;28509;-69
2023/06/19 09:04:37;;;;;;;;;6.00;6.00;;;;;;;;4993488;28;28434;-69
2023/06/19 09:07:03;;;;;;;;;8.25;8.25;;;;;;;;4993810;28;28435;-68
2023/06/19 09:09:29;;;;;;;;;4.25;4.00;;;;;;;;4993393;28;28567;-69
2023/06/19 09:11:58;;;;;;;;;8.00;6.00;;;;;;;;4992993;28;28416;-68
2023/06/19 09:14:33;;;;;;;;;2.50;1.50;;;;;;;;4993336;28;28265;-68
2023/06/19 09:16:58;;;;;;;;;5.75;5.00;;;;;;;;4993260;28;28332;-69
2023/06/19 09:19:23;;;;;;;;;6.75;4.75;;;;;;;;4992975;28;28386;-69
2023/06/19 09:21:48;;;;;;;;;5.00;4.00;;;;;;;;4992799;28;28377;-68
2023/06/19 09:24:14;;;;;;;;;5.00;5.00;;;;;;;;4992632;28;28486;-69
2023/06/19 09:26:39;;;;;;;;;4.75;4.50;;;;;;;;4992497;28;28696;-68
2023/06/19 09:29:11;;;;;;;;;6.00;5.00;;;;;;;;4993048;28;28579;-67
2023/06/19 09:31:37;;;;;;;;;7.00;4.75;;;;;;;;4991225;28;39049;-67
2023/06/19 09:34:03;;;;;;;;;5.25;4.50;;;;;;;;4978020;28;45377;-67
2023/06/19 09:36:30;;;;;;;;;4.25;4.25;;;;;;;;4976656;28;45356;-67
2023/06/19 09:38:56;;;;;;;;;5.25;5.25;;;;;;;;4977425;28;45355;-68
2023/06/19 09:41:23;;;;;;;;;4.75;3.50;;;;;;;;4976685;28;45324;-68
2023/06/19 09:43:49;;;;;;;;;5.50;5.00;;;;;;;;4976879;28;45424;-69
2023/06/19 09:46:16;;;;;;;;;6.75;5.50;;;;;;;;4985019;28;44629;-68
2023/06/19 09:48:43;;;;;;;;;5.00;4.25;;;;;;;;4990192;28;45249;-69
2023/06/19 09:51:18;;;;;;;;;5.75;5.75;;;;;;;;4977141;28;45396;-68
2023/06/19 09:53:47;;;;;;;;;4.00;4.00;;;;;;;;4976800;28;45325;-68
2023/06/19 09:56:13;;;;;;;;;5.00;5.00;;;;;;;;4977083;28;45372;-69
2023/06/19 09:58:40;;;;;;;;;3.00;3.00;;;;;;;;4976912;28;45545;-69
2023/06/19 10:01:06;;;;;;;;;3.75;3.75;;;;;;;;4976578;28;46190;-69
2023/06/19 10:03:32;;;;;;;;;4.25;4.25;;;;;;;;4976512;28;45321;-68
2023/06/19 10:05:59;;;;;;;;;5.00;4.00;;;;;;;;4976958;28;45373;-69
2023/06/19 10:08:29;;;;;;;;;4.75;3.75;;;;;;;;4976550;28;45520;-67
2023/06/19 10:10:54;;;;;;;;;4.75;3.50;;;;;;;;4976614;28;46047;-69
2023/06/19 10:13:20;;;;;;;;;5.00;4.75;;;;;;;;4975323;28;45387;-68
2023/06/19 10:15:47;;;;;;;;;4.75;4.75;;;;;;;;4976812;28;45364;-69
2023/06/19 10:18:16;;;;;;;;;6.00;5.50;;;;;;;;4976773;28;45496;-68
2023/06/19 10:20:41;;;;;;;;;5.00;5.00;;;;;;;;4976394;28;45402;-68
2023/06/19 10:23:07;;;;;;;;;5.50;5.50;;;;;;;;4976360;28;45400;-69
2023/06/19 10:25:34;;;;;;;;;5.00;5.00;;;;;;;;4976638;28;45336;-68
2023/06/19 10:27:59;;;;;;;;;5.75;5.50;;;;;;;;4976684;28;45557;-69
2023/06/19 10:30:25;;;;;;;;;4.50;3.50;;;;;;;;4976041;28;46228;-68
2023/06/19 10:32:50;;;;;;;;;6.25;5.25;;;;;;;;4976556;28;45351;-68
2023/06/19 10:35:16;;;;;;;;;5.00;4.00;;;;;;;;4984668;28;45313;-67
2023/06/19 10:37:42;;;;;;;;;4.00;4.00;;;;;;;;4981539;28;45311;-68
2023/06/19 10:40:09;;;;;;;;;3.25;3.25;;;;;;;;4987681;28;44692;-67
2023/06/19 10:42:34;;;;;;;;;4.25;3.25;;;;;;;;4991675;28;28474;-68
2023/06/19 10:45:02;;;;;;;;;3.00;3.00;;;;;;;;4992132;28;28476;-69
2023/06/19 10:47:28;;;;;;;;;3.25;3.25;;;;;;;;4989282;28;44819;-69
2023/06/19 10:49:54;;;;;;;;;4.75;2.75;;;;;;;;4990868;28;39483;-69
2023/06/19 10:52:19;;;;;;;;;3.25;3.25;;;;;;;;4991376;28;28428;-68
2023/06/19 10:54:44;;;;;;;;;4.25;4.25;;;;;;;;4991374;28;28447;-68
2023/06/19 10:57:09;;;;;;;;;3.75;3.75;;;;;;;;4991624;28;28662;-69
2023/06/19 10:59:35;;;;;;;;;3.75;3.75;;;;;;;;4991555;28;28415;-68
2023/06/19 11:02:00;;;;;;;;;4.00;4.00;;;;;;;;4991809;28;28538;-68
2023/06/19 11:04:25;;;;;;;;;5.00;3.25;;;;;;;;4991701;28;28375;-69
2023/06/19 11:06:51;;;;;;;;;4.25;3.00;;;;;;;;4991380;28;28344;-68
2023/06/19 11:09:16;;;;;;;;;4.00;3.00;;;;;;;;4991425;28;29425;-70
2023/06/19 11:11:41;;;;;;;;;3.50;3.50;;;;;;;;4990119;28;28368;-68
2023/06/19 11:14:07;;;;;;;;;5.00;5.00;;;;;;;;4991691;28;28464;-70
2023/06/19 11:16:33;;;;;;;;;6.75;6.50;;;;;;;;4991695;28;28370;-70
2023/06/19 11:18:58;;;;;;;;;4.50;4.00;;;;;;;;4991289;28;28411;-70
2023/06/19 11:21:30;;;;;;;;;5.50;4.50;;;;;;;;4991079;28;28360;-70
2023/06/19 11:23:57;;;;;;;;;7.50;4.75;;;;;;;;4991365;28;28391;-71
2023/06/19 11:26:24;;;;;;;;;5.00;5.00;;;;;;;;4991533;28;28424;-70
2023/06/19 11:28:49;;;;;;;;;3.25;3.25;;;;;;;;4990960;28;29696;-70
2023/06/19 11:31:15;;;;;;;;;1.50;1.50;;;;;;;;4990948;28;28443;-69
2023/06/19 11:33:40;;;;;;;;;7.75;5.25;;;;;;;;4990496;28;45526;-70
2023/06/19 11:36:06;;;;;;;;;5.25;5.25;;;;;;;;4990974;28;28502;-70
2023/06/19 11:38:31;;;;;;;;;4.75;4.75;;;;;;;;4991196;28;28432;-69
2023/06/19 11:40:57;;;;;;;;;4.00;4.00;;;;;;;;4984732;28;45539;-70
2023/06/19 11:43:25;;;;;;;;;5.00;5.00;;;;;;;;4975327;28;45464;-70
2023/06/19 11:45:52;;;;;;;;;4.50;4.50;;;;;;;;4975634;28;45609;-70
2023/06/19 11:48:24;;;;;;;;;3.00;3.00;;;;;;;;4975411;28;47233;-70
2023/06/19 11:50:49;;;;;;;;;5.00;5.00;;;;;;;;4974701;28;45317;-70
2023/06/19 11:53:14;;;;;;;;;5.50;5.50;;;;;;;;4975559;28;45281;-70
2023/06/19 11:55:39;;;;;;;;;3.50;3.50;;;;;;;;4975662;28;45402;-70
2023/06/19 11:58:05;;;;;;;;;6.25;5.00;;;;;;;;4974207;28;46221;-68
2023/06/19 12:00:30;;;;;;;;;5.25;4.50;;;;;;;;4978810;28;45341;-68
2023/06/19 12:02:57;;;;;;;;;4.00;3.00;;;;;;;;4978823;28;45305;-71
2023/06/19 12:05:22;;;;;;;;;6.25;5.25;;;;;;;;4979076;28;45478;-71
2023/06/19 12:07:47;;;;;;;;;3.25;3.25;;;;;;;;4978509;28;46304;-71
2023/06/19 12:10:12;;;;;;;;;6.25;6.25;;;;;;;;4978759;28;45364;-71
2023/06/19 12:12:38;;;;;;;;;7.25;6.00;;;;;;;;4982962;28;45307;-68
2023/06/19 12:15:04;;;;;;;;;5.00;5.00;;;;;;;;4979487;28;45334;-71
2023/06/19 12:17:29;;;;;;;;;7.25;7.25;;;;;;;;4979286;28;46599;-70
2023/06/19 12:19:55;;;;;;;;;4.75;4.00;;;;;;;;4977374;28;45540;-70
2023/06/19 12:22:20;;;;;;;;;4.50;4.50;;;;;;;;4979070;28;45701;-70
2023/06/19 12:24:46;;;;;;;;;4.75;3.75;;;;;;;;4978376;28;45388;-70
2023/06/19 12:27:11;;;;;;;;;4.25;4.25;;;;;;;;4978338;28;45392;-70
2023/06/19 12:29:36;;;;;;;;;4.25;4.25;;;;;;;;4978265;28;45415;-70
2023/06/19 12:32:04;;;;;;;;;4.75;4.25;;;;;;;;4978154;28;45440;-70
2023/06/19 12:34:30;;;;;;;;;4.00;2.00;;;;;;;;4978408;28;45445;-70
2023/06/19 12:36:56;;;;;;;;;5.00;4.00;;;;;;;;4977915;28;46968;-70
2023/06/19 12:39:22;;;;;;;;;6.25;6.00;;;;;;;;4978176;28;45459;-70
2023/06/19 12:41:47;;;;;;;;;6.25;3.25;;;;;;;;4976919;28;45376;-70
2023/06/19 12:44:12;;;;;;;;;4.25;4.25;;;;;;;;4976990;28;45387;-70
2023/06/19 12:46:38;;;;;;;;;5.00;5.00;;;;;;;;4977968;28;45503;-70
2023/06/19 12:49:03;;;;;;;;;5.00;5.00;;;;;;;;4977973;28;45360;-69
2023/06/19 12:51:28;;;;;;;;;2.75;2.75;;;;;;;;4978103;28;45352;-70
2023/06/19 12:53:54;;;;;;;;;5.75;4.50;;;;;;;;4978087;28;45242;-70
2023/06/19 12:56:19;;;;;;;;;4.50;3.00;;;;;;;;4977583;28;46986;-70
2023/06/19 12:58:44;;;;;;;;;5.00;5.00;;;;;;;;4977778;28;45326;-70
2023/06/19 13:01:09;;;;;;;;;5.00;5.00;;;;;;;;4977973;28;45297;-70
2023/06/19 13:03:34;;;;;;;;;7.00;4.00;;;;;;;;4976487;28;45391;-70
2023/06/19 13:06:00;;;;;;;;;4.75;4.75;;;;;;;;4977801;28;46154;-70
2023/06/19 13:08:25;;;;;;;;;3.75;2.50;;;;;;;;4977395;28;45463;-70
2023/06/19 13:10:50;;;;;;;;;6.00;5.00;;;;;;;;4976906;28;45372;-70
2023/06/19 13:13:15;;;;;;;;;8.00;6.25;;;;;;;;4977809;28;45361;-69
2023/06/19 13:15:41;;;;;;;;;4.75;4.75;;;;;;;;4977576;28;45421;-70
2023/06/19 13:18:06;;;;;;;;;5.00;5.00;;;;;;;;4975892;28;45332;-70
2023/06/19 13:20:31;;;;;;;;;5.50;5.00;;;;;;;;4977506;28;45339;-71
2023/06/19 13:22:57;;;;;;;;;8.00;6.25;;;;;;;;4977748;28;45555;-71
2023/06/19 13:25:22;;;;;;;;;6.25;5.25;;;;;;;;4977293;28;45607;-70
2023/06/19 13:27:47;;;;;;;;;5.75;4.75;;;;;;;;4976212;28;45471;-71
2023/06/19 13:30:12;;;;;;;;;4.50;4.50;;;;;;;;4977398;28;45312;-71
2023/06/19 13:32:37;;;;;;;;;6.50;6.25;;;;;;;;4977227;28;45363;-70
2023/06/19 13:35:03;;;;;;;;;5.25;5.25;;;;;;;;4977501;28;46676;-70
2023/06/19 13:37:28;;;;;;;;;5.50;4.50;;;;;;;;4977398;28;45320;-71
2023/06/19 13:39:54;;;;;;;;;4.00;4.00;;;;;;;;4977459;28;45404;-70
2023/06/19 13:42:19;;;;;;;;;6.50;5.50;;;;;;;;4976303;28;45391;-71
2023/06/19 13:44:44;;;;;;;;;6.50;6.50;;;;;;;;4962806;28;45507;-70
2023/06/19 13:49:44;;;;;;;;;6.00;5.00;;;;;;;;5019783;22;45502;-71
2023/06/19 13:52:09;;;;;;;;;4.25;4.25;;;;;;;;4963783;28;45481;-70
2023/06/19 13:54:35;;;;;;;;;5.00;5.00;;;;;;;;4965003;28;45395;-70
2023/06/19 13:57:01;;;;;;;;;5.25;5.00;;;;;;;;4959783;28;45470;-70
2023/06/19 13:59:26;;;;;;;;;5.25;5.25;;;;;;;;4968786;28;45522;-70
2023/06/19 14:01:51;;;;;;;;;6.00;5.00;;;;;;;;4966900;28;45430;-71
2023/06/19 14:04:16;;;;;;;;;4.75;4.00;;;;;;;;4962709;28;47004;-71
2023/06/19 14:06:43;;;;;;;;;4.75;4.50;;;;;;;;4972783;28;45329;-71
2023/06/19 14:09:08;;;;;;;;;6.50;5.00;;;;;;;;4964061;28;45364;-70
2023/06/19 14:11:34;;;;;;;;;6.00;5.00;;;;;;;;4968454;28;45283;-71
2023/06/19 14:13:59;;;;;;;;;8.75;7.00;;;;;;;;4967258;28;46561;-70
2023/06/19 14:16:24;;;;;;;;;7.00;6.00;;;;;;;;4975893;28;45413;-71
2023/06/19 14:18:49;;;;;;;;;6.25;5.00;;;;;;;;4964753;28;45461;-70
2023/06/19 14:21:14;;;;;;;;;6.00;6.00;;;;;;;;4976582;28;45412;-70
2023/06/19 14:23:43;;;;;;;;;4.00;4.00;;;;;;;;4976319;28;45437;-70
2023/06/19 14:26:08;;;;;;;;;5.50;5.50;;;;;;;;4976515;28;45326;-71
2023/06/19 14:28:34;;;;;;;;;6.75;6.00;;;;;;;;4990093;28;44512;-71
2023/06/19 14:30:59;;;;;;;;;5.00;5.00;;;;;;;;4979237;28;45259;-71